Flight Track Log - Related Links

Times and Time Zones

All times are in EDT time to prevent confusion due to time zone crossing. See the N678MB flight status page for this flight to view local times or setup timezone preferences in your user account.

Time Position Orientation Groundspeed Altitude Reporting Facility
EDT Latitude Longitude Course Direction KTS MPH feet Rate Location/Type
Fri 02:25:22 PM 39.1667 -77.1167 109° East 176 203 2,900  Level Potomac TRACON
Fri 02:26:22 PM 39.2000 -77.0667 49° Northeast 176 203 6,300 2,050 Climbing Potomac TRACON
Fri 02:27:22 PM 39.2333 -77.0167 49° Northeast 209 241 7,000 175 Climbing Potomac TRACON
Fri 02:29:00 PM 39.1905 -76.9264 90° East  Level Estimated
Fri 02:30:00 PM 39.0603 -76.7996 109° East  Level FlightAware Approximate
Fri 02:30:22 PM 39.3167 -76.8000 90° East 253 291 7,000  Level Potomac TRACON
Fri 02:31:22 PM 39.2667 -76.7333 134° Southeast 255 293 7,000  Level Potomac TRACON
Fri 02:32:23 PM 39.2167 -76.6667 134° Southeast 270 311 7,000  Level Potomac TRACON
Fri 02:33:23 PM 39.1667 -76.6000 134° Southeast 270 311 7,000  Level Potomac TRACON
Fri 02:35:00 PM 39.1187 -76.5155 126° Southeast  Level Estimated
Fri 02:37:23 PM 38.9667 -76.3333 126° Southeast 263 303 7,000  Level Potomac TRACON
Fri 02:37:59 PM 38.9364 -76.2936 134° Southeast 262 302 7,000  Level Washington Center
Fri 02:38:42 PM 38.8992 -76.2425 133° Southeast 262 302 7,000  Level Washington Center
Fri 02:39:42 PM 38.8494 -76.1781 135° Southeast 259 298 7,000  Level Washington Center
Fri 02:40:46 PM 38.7956 -76.1056 134° Southeast 260 299 7,000  Level Washington Center
Fri 02:41:45 PM 38.7458 -76.0414 135° Southeast 260 299 7,000  Level Washington Center
Fri 02:42:00 PM 38.9104 -76.1511 126° Southeast  Level Estimated
Fri 02:42:46 PM 38.6958 -75.9747 134° Southeast 262 302 7,000  Level Washington Center
Fri 02:43:46 PM 38.6503 -75.9028 129° Southeast 260 299 7,000  Level Washington Center
Fri 02:44:49 PM 38.6150 -75.8150 117° Southeast 257 296 7,000  Level Washington Center
Fri 02:45:56 PM 38.5756 -75.7297 121° Southeast 257 296 7,000 -49 Level Washington Center
Fri 02:46:51 PM 38.5464 -75.6581 117° Southeast 254 292 6,900 -1,043 Descending Washington Center
Fri 02:47:51 PM 38.5108 -75.5811 121° Southeast 248 285 5,000 -1,750 Descending Washington Center
Fri 02:48:51 PM 38.4817 -75.5122 118° Southeast 232 267 3,400 -992 Descending Washington Center
Fri 02:49:52 PM 38.4461 -75.4381 121° Southeast 225 259 3,000 -209 Descending Washington Center
Fri 02:50:46 PM 38.4211 -75.3744 117° Southeast 224 258 3,000  Level Washington Center

Login

Don't have an account? Register now (free) for customized features, flight alerts, and more!